sensor_id;sensor_type;location;lat;lon;timestamp;pressure;altitude;pressure_sealevel;temperature;humidity
55171;BME280;41060;47.510;8.680;2023-02-20T00:01:08;98170.63;;;11.74;42.96
55171;BME280;41060;47.510;8.680;2023-02-20T00:03:34;98279.38;;;12.41;43.14
55171;BME280;41060;47.510;8.680;2023-02-20T00:06:01;98239.44;;;12.17;43.54
55171;BME280;41060;47.510;8.680;2023-02-20T00:08:28;98280.56;;;12.37;43.62
55171;BME280;41060;47.510;8.680;2023-02-20T00:10:54;98259.69;;;12.18;43.62
55171;BME280;41060;47.510;8.680;2023-02-20T00:13:24;98191.50;;;11.54;44.32
55171;BME280;41060;47.510;8.680;2023-02-20T00:15:51;98286.16;;;12.19;44.09
55171;BME280;41060;47.510;8.680;2023-02-20T00:18:19;98287.53;;;12.25;44.14
55171;BME280;41060;47.510;8.680;2023-02-20T00:20:45;98287.03;;;12.33;43.89
55171;BME280;41060;47.510;8.680;2023-02-20T00:23:12;98289.06;;;12.54;43.30
55171;BME280;41060;47.510;8.680;2023-02-20T00:25:39;98330.50;;;12.57;43.28
55171;BME280;41060;47.510;8.680;2023-02-20T00:28:05;98100.13;;;11.45;43.13
55171;BME280;41060;47.510;8.680;2023-02-20T00:30:33;98288.22;;;12.67;42.87
55171;BME280;41060;47.510;8.680;2023-02-20T00:32:59;98237.22;;;12.36;42.73
55171;BME280;41060;47.510;8.680;2023-02-20T00:35:27;98208.84;;;12.24;42.53
55171;BME280;41060;47.510;8.680;2023-02-20T00:37:56;98236.03;;;12.40;42.50
55171;BME280;41060;47.510;8.680;2023-02-20T00:40:24;98286.81;;;12.48;42.67
55171;BME280;41060;47.510;8.680;2023-02-20T00:42:51;98284.41;;;12.45;42.77
55171;BME280;41060;47.510;8.680;2023-02-20T00:45:19;98268.50;;;11.93;43.73
55171;BME280;41060;47.510;8.680;2023-02-20T00:47:45;98164.69;;;11.31;43.48
55171;BME280;41060;47.510;8.680;2023-02-20T00:50:13;98296.34;;;12.25;43.52
55171;BME280;41060;47.510;8.680;2023-02-20T00:52:42;98304.13;;;12.29;43.32
55171;BME280;41060;47.510;8.680;2023-02-20T00:55:09;98301.59;;;12.40;43.20
55171;BME280;41060;47.510;8.680;2023-02-20T00:57:35;98227.75;;;12.07;42.93
55171;BME280;41060;47.510;8.680;2023-02-20T01:00:04;98113.47;;;11.31;43.16
55171;BME280;41060;47.510;8.680;2023-02-20T01:02:31;98305.31;;;12.50;43.01
55171;BME280;41060;47.510;8.680;2023-02-20T01:05:00;98101.25;;;11.28;43.02
55171;BME280;41060;47.510;8.680;2023-02-20T01:07:27;98227.31;;;12.00;43.09
55171;BME280;41060;47.510;8.680;2023-02-20T01:09:55;98306.38;;;12.35;43.42
55171;BME280;41060;47.510;8.680;2023-02-20T01:12:21;98301.56;;;12.27;43.63
55171;BME280;41060;47.510;8.680;2023-02-20T01:14:48;98303.28;;;12.28;43.61
55171;BME280;41060;47.510;8.680;2023-02-20T01:17:15;98271.59;;;12.12;43.66
55171;BME280;41060;47.510;8.680;2023-02-20T01:19:42;98129.53;;;11.42;43.57
55171;BME280;41060;47.510;8.680;2023-02-20T01:22:10;98176.69;;;11.64;43.49
55171;BME280;41060;47.510;8.680;2023-02-20T01:24:36;98295.44;;;12.39;43.52
55171;BME280;41060;47.510;8.680;2023-02-20T01:27:04;98284.50;;;12.31;43.34
55171;BME280;41060;47.510;8.680;2023-02-20T01:29:31;98291.38;;;12.21;43.62
55171;BME280;41060;47.510;8.680;2023-02-20T01:32:01;98251.94;;;11.75;44.08
55171;BME280;41060;47.510;8.680;2023-02-20T01:34:27;98269.75;;;11.73;44.00
55171;BME280;41060;47.510;8.680;2023-02-20T01:36:54;98273.28;;;12.01;43.73
55171;BME280;41060;47.510;8.680;2023-02-20T01:39:23;98288.13;;;12.03;43.92
55171;BME280;41060;47.510;8.680;2023-02-20T01:41:53;98301.38;;;11.91;44.00
55171;BME280;41060;47.510;8.680;2023-02-20T01:44:24;98286.56;;;12.01;43.88
55171;BME280;41060;47.510;8.680;2023-02-20T01:46:52;98256.69;;;11.97;43.46
55171;BME280;41060;47.510;8.680;2023-02-20T01:49:31;98295.81;;;12.20;43.23
55171;BME280;41060;47.510;8.680;2023-02-20T01:52:06;98296.50;;;12.37;43.12
55171;BME280;41060;47.510;8.680;2023-02-20T01:54:37;98305.31;;;12.50;42.67
55171;BME280;41060;47.510;8.680;2023-02-20T01:57:08;98278.53;;;12.27;42.89
55171;BME280;41060;47.510;8.680;2023-02-20T01:59:41;98311.16;;;12.55;42.42
55171;BME280;41060;47.510;8.680;2023-02-20T02:02:09;98241.88;;;12.20;42.08
55171;BME280;41060;47.510;8.680;2023-02-20T02:04:38;98299.16;;;12.62;42.17
55171;BME280;41060;47.510;8.680;2023-02-20T02:07:06;98301.91;;;12.48;42.63
55171;BME280;41060;47.510;8.680;2023-02-20T02:09:37;98248.03;;;12.08;42.93
55171;BME280;41060;47.510;8.680;2023-02-20T02:12:05;98244.00;;;12.27;42.84
55171;BME280;41060;47.510;8.680;2023-02-20T02:14:32;98298.94;;;12.40;43.20
55171;BME280;41060;47.510;8.680;2023-02-20T02:17:11;98296.19;;;12.67;42.55
55171;BME280;41060;47.510;8.680;2023-02-20T02:19:56;98155.91;;;11.43;43.57
55171;BME280;41060;47.510;8.680;2023-02-20T02:22:46;98289.66;;;12.20;43.95
55171;BME280;41060;47.510;8.680;2023-02-20T02:25:29;98290.84;;;12.29;43.91
55171;BME280;41060;47.510;8.680;2023-02-20T02:35:00;98289.63;;;11.95;44.72
55171;BME280;41060;47.510;8.680;2023-02-20T02:37:39;98287.50;;;12.00;44.16
55171;BME280;41060;47.510;8.680;2023-02-20T02:40:18;98238.47;;;11.78;44.20
55171;BME280;41060;47.510;8.680;2023-02-20T02:42:53;98282.97;;;12.14;44.18
55171;BME280;41060;47.510;8.680;2023-02-20T02:45:27;98240.97;;;11.67;45.01
55171;BME280;41060;47.510;8.680;2023-02-20T02:47:59;98278.28;;;11.78;45.34
55171;BME280;41060;47.510;8.680;2023-02-20T02:50:31;98287.97;;;11.38;46.02
55171;BME280;41060;47.510;8.680;2023-02-20T02:53:02;98278.19;;;11.53;45.48
55171;BME280;41060;47.510;8.680;2023-02-20T02:55:31;98275.06;;;11.73;44.94
55171;BME280;41060;47.510;8.680;2023-02-20T02:57:59;98237.03;;;11.60;45.00
55171;BME280;41060;47.510;8.680;2023-02-20T03:00:30;98271.88;;;11.95;44.74
55171;BME280;41060;47.510;8.680;2023-02-20T03:03:05;98224.59;;;11.48;45.53
55171;BME280;41060;47.510;8.680;2023-02-20T03:05:37;98261.38;;;11.94;45.08
55171;BME280;41060;47.510;8.680;2023-02-20T03:08:16;98239.63;;;11.74;45.26
55171;BME280;41060;47.510;8.680;2023-02-20T03:10:47;98255.13;;;12.07;44.59
55171;BME280;41060;47.510;8.680;2023-02-20T03:13:18;98266.53;;;12.22;44.21
55171;BME280;41060;47.510;8.680;2023-02-20T03:15:47;98272.16;;;12.30;43.96
55171;BME280;41060;47.510;8.680;2023-02-20T03:18:23;98261.53;;;12.30;44.06
55171;BME280;41060;47.510;8.680;2023-02-20T03:20:51;98260.97;;;12.12;44.42
55171;BME280;41060;47.510;8.680;2023-02-20T03:23:23;98203.13;;;11.78;44.30
55171;BME280;41060;47.510;8.680;2023-02-20T03:25:54;98204.00;;;11.78;44.23
55171;BME280;41060;47.510;8.680;2023-02-20T03:28:27;98155.59;;;11.35;44.63
55171;BME280;41060;47.510;8.680;2023-02-20T03:30:59;98252.25;;;11.98;44.71
55171;BME280;41060;47.510;8.680;2023-02-20T03:33:35;98231.09;;;11.96;44.67
55171;BME280;41060;47.510;8.680;2023-02-20T03:36:25;98235.78;;;11.93;44.30
55171;BME280;41060;47.510;8.680;2023-02-20T03:39:14;98240.50;;;11.87;44.43
55171;BME280;41060;47.510;8.680;2023-02-20T03:42:02;98207.34;;;11.68;43.87
55171;BME280;41060;47.510;8.680;2023-02-20T03:44:47;98203.22;;;11.76;43.79
55171;BME280;41060;47.510;8.680;2023-02-20T03:47:17;98240.16;;;12.06;43.95
55171;BME280;41060;47.510;8.680;2023-02-20T03:49:46;98211.38;;;11.73;44.15
55171;BME280;41060;47.510;8.680;2023-02-20T03:52:17;98232.50;;;11.75;44.42
55171;BME280;41060;47.510;8.680;2023-02-20T03:54:47;98198.59;;;11.53;44.15
55171;BME280;41060;47.510;8.680;2023-02-20T03:57:21;98236.13;;;11.74;44.03
55171;BME280;41060;47.510;8.680;2023-02-20T03:59:52;98177.78;;;11.47;43.74
55171;BME280;41060;47.510;8.680;2023-02-20T04:02:24;98165.22;;;10.97;44.44
55171;BME280;41060;47.510;8.680;2023-02-20T04:04:54;98147.06;;;10.77;44.70
55171;BME280;41060;47.510;8.680;2023-02-20T04:07:25;98226.13;;;11.38;44.58
55171;BME280;41060;47.510;8.680;2023-02-20T04:09:58;98139.34;;;10.74;44.76
55171;BME280;41060;47.510;8.680;2023-02-20T04:12:29;98229.53;;;11.13;44.84
55171;BME280;41060;47.510;8.680;2023-02-20T04:14:59;98049.28;;;10.04;44.63
55171;BME280;41060;47.510;8.680;2023-02-20T04:17:29;98228.88;;;11.09;44.77
55171;BME280;41060;47.510;8.680;2023-02-20T04:19:56;98160.44;;;10.47;45.18
55171;BME280;41060;47.510;8.680;2023-02-20T04:22:26;98166.47;;;10.49;45.53
55171;BME280;41060;47.510;8.680;2023-02-20T04:24:58;98211.22;;;10.53;45.57
55171;BME280;41060;47.510;8.680;2023-02-20T04:27:26;98161.28;;;10.05;46.12
55171;BME280;41060;47.510;8.680;2023-02-20T04:29:53;98234.09;;;10.26;46.11
55171;BME280;41060;47.510;8.680;2023-02-20T04:32:19;98235.22;;;10.08;46.43
55171;BME280;41060;47.510;8.680;2023-02-20T04:34:46;97919.69;;;8.01;47.26
55171;BME280;41060;47.510;8.680;2023-02-20T04:37:15;98224.44;;;9.81;46.96
55171;BME280;41060;47.510;8.680;2023-02-20T04:39:43;98055.47;;;9.02;46.56
55171;BME280;41060;47.510;8.680;2023-02-20T04:42:11;98112.84;;;9.60;45.79
55171;BME280;41060;47.510;8.680;2023-02-20T04:44:41;98204.78;;;10.29;45.46
55171;BME280;41060;47.510;8.680;2023-02-20T04:47:13;98215.75;;;10.37;45.63
55171;BME280;41060;47.510;8.680;2023-02-20T04:49:41;98167.16;;;9.66;46.42
55171;BME280;41060;47.510;8.680;2023-02-20T04:52:07;98203.28;;;9.81;46.64
55171;BME280;41060;47.510;8.680;2023-02-20T04:54:34;98220.38;;;9.75;47.47
55171;BME280;41060;47.510;8.680;2023-02-20T04:57:01;98001.06;;;8.54;46.67
55171;BME280;41060;47.510;8.680;2023-02-20T04:59:29;98233.03;;;10.14;46.44
55171;BME280;41060;47.510;8.680;2023-02-20T05:01:57;98226.91;;;10.14;46.45
55171;BME280;41060;47.510;8.680;2023-02-20T05:04:27;98179.59;;;9.79;46.02
55171;BME280;41060;47.510;8.680;2023-02-20T05:06:54;98219.03;;;10.12;46.36
55171;BME280;41060;47.510;8.680;2023-02-20T05:09:21;98224.53;;;10.09;45.94
55171;BME280;41060;47.510;8.680;2023-02-20T05:11:49;98165.66;;;9.62;46.24
55171;BME280;41060;47.510;8.680;2023-02-20T05:14:16;98229.00;;;9.79;46.46
55171;BME280;41060;47.510;8.680;2023-02-20T05:16:44;98150.66;;;9.32;46.62
55171;BME280;41060;47.510;8.680;2023-02-20T05:19:12;98177.69;;;9.51;47.88
55171;BME280;41060;47.510;8.680;2023-02-20T05:21:40;98233.22;;;10.11;48.11
55171;BME280;41060;47.510;8.680;2023-02-20T05:24:25;98230.19;;;10.17;46.86
55171;BME280;41060;47.510;8.680;2023-02-20T05:26:53;98210.25;;;10.12;46.44
55171;BME280;41060;47.510;8.680;2023-02-20T05:29:19;98235.88;;;10.25;45.92
55171;BME280;41060;47.510;8.680;2023-02-20T05:31:50;98223.69;;;10.09;46.01
55171;BME280;41060;47.510;8.680;2023-02-20T05:34:17;98187.78;;;9.75;46.42
55171;BME280;41060;47.510;8.680;2023-02-20T05:36:45;98233.97;;;10.13;45.91
55171;BME280;41060;47.510;8.680;2023-02-20T05:39:12;98226.72;;;10.17;45.84
55171;BME280;41060;47.510;8.680;2023-02-20T05:41:39;98158.97;;;9.70;45.35
55171;BME280;41060;47.510;8.680;2023-02-20T05:44:05;98185.13;;;9.75;45.77
55171;BME280;41060;47.510;8.680;2023-02-20T05:46:37;98226.59;;;10.04;45.71
55171;BME280;41060;47.510;8.680;2023-02-20T05:49:05;98073.25;;;9.14;45.46
55171;BME280;41060;47.510;8.680;2023-02-20T05:51:33;98216.94;;;10.03;45.38
55171;BME280;41060;47.510;8.680;2023-02-20T05:53:59;98222.19;;;9.89;45.73
55171;BME280;41060;47.510;8.680;2023-02-20T05:56:26;98175.69;;;9.41;45.75
55171;BME280;41060;47.510;8.680;2023-02-20T05:58:55;98225.78;;;9.58;46.07
55171;BME280;41060;47.510;8.680;2023-02-20T06:01:24;98167.06;;;9.22;45.82
55171;BME280;41060;47.510;8.680;2023-02-20T06:03:51;98204.34;;;9.48;45.89
55171;BME280;41060;47.510;8.680;2023-02-20T06:06:20;98150.72;;;9.15;45.74
55171;BME280;41060;47.510;8.680;2023-02-20T06:08:47;98227.78;;;9.54;45.45
55171;BME280;41060;47.510;8.680;2023-02-20T06:11:15;98227.28;;;9.16;46.68
55171;BME280;41060;47.510;8.680;2023-02-20T06:13:43;98223.22;;;9.27;46.69
55171;BME280;41060;47.510;8.680;2023-02-20T06:16:11;98242.44;;;9.44;46.34
55171;BME280;41060;47.510;8.680;2023-02-20T06:18:38;98218.81;;;9.57;46.16
55171;BME280;41060;47.510;8.680;2023-02-20T06:21:06;98217.97;;;9.57;45.90
55171;BME280;41060;47.510;8.680;2023-02-20T06:23:35;98191.38;;;9.44;46.22
55171;BME280;41060;47.510;8.680;2023-02-20T06:26:02;98208.72;;;9.64;45.69
55171;BME280;41060;47.510;8.680;2023-02-20T06:28:29;98233.28;;;9.66;45.98
55171;BME280;41060;47.510;8.680;2023-02-20T06:30:56;98119.31;;;8.95;46.18
55171;BME280;41060;47.510;8.680;2023-02-20T06:33:22;98139.91;;;9.20;46.31
55171;BME280;41060;47.510;8.680;2023-02-20T06:35:49;98204.47;;;9.61;46.40
55171;BME280;41060;47.510;8.680;2023-02-20T06:38:16;98143.66;;;9.31;45.96
55171;BME280;41060;47.510;8.680;2023-02-20T06:40:44;98130.53;;;9.14;46.49
55171;BME280;41060;47.510;8.680;2023-02-20T06:43:11;98214.63;;;9.53;46.10
55171;BME280;41060;47.510;8.680;2023-02-20T06:45:37;98182.56;;;8.98;46.60
55171;BME280;41060;47.510;8.680;2023-02-20T06:48:04;98189.13;;;8.91;47.11
55171;BME280;41060;47.510;8.680;2023-02-20T06:50:31;98200.09;;;8.99;46.95
55171;BME280;41060;47.510;8.680;2023-02-20T06:52:58;98215.84;;;8.85;47.11
55171;BME280;41060;47.510;8.680;2023-02-20T06:55:25;98141.97;;;8.20;47.59
55171;BME280;41060;47.510;8.680;2023-02-20T06:57:53;98224.19;;;8.28;48.74
55171;BME280;41060;47.510;8.680;2023-02-20T07:00:20;98082.59;;;6.94;50.72
55171;BME280;41060;47.510;8.680;2023-02-20T07:02:46;98115.00;;;7.31;50.25
55171;BME280;41060;47.510;8.680;2023-02-20T07:05:13;98192.56;;;7.78;50.01
55171;BME280;41060;47.510;8.680;2023-02-20T07:07:40;98242.88;;;8.08;50.13
55171;BME280;41060;47.510;8.680;2023-02-20T07:10:07;98244.72;;;8.23;49.43
55171;BME280;41060;47.510;8.680;2023-02-20T07:12:34;98231.28;;;8.28;49.66
55171;BME280;41060;47.510;8.680;2023-02-20T07:15:04;98226.56;;;8.50;49.06
55171;BME280;41060;47.510;8.680;2023-02-20T07:17:32;98204.41;;;8.37;48.75
55171;BME280;41060;47.510;8.680;2023-02-20T07:19:59;98234.19;;;8.88;48.53
55171;BME280;41060;47.510;8.680;2023-02-20T07:22:25;98134.00;;;8.37;48.18
55171;BME280;41060;47.510;8.680;2023-02-20T07:24:52;98231.91;;;8.97;48.82
55171;BME280;41060;47.510;8.680;2023-02-20T07:27:22;98225.41;;;9.03;48.73
55171;BME280;41060;47.510;8.680;2023-02-20T07:29:50;98222.34;;;9.10;48.15
55171;BME280;41060;47.510;8.680;2023-02-20T07:32:18;98224.25;;;9.24;47.98
55171;BME280;41060;47.510;8.680;2023-02-20T07:34:48;98108.19;;;8.74;47.50
55171;BME280;41060;47.510;8.680;2023-02-20T07:37:15;98241.16;;;9.51;46.78
55171;BME280;41060;47.510;8.680;2023-02-20T07:39:42;98217.69;;;9.61;46.80
55171;BME280;41060;47.510;8.680;2023-02-20T07:42:09;98194.16;;;9.57;47.06
55171;BME280;41060;47.510;8.680;2023-02-20T07:44:38;98213.41;;;9.59;47.12
55171;BME280;41060;47.510;8.680;2023-02-20T07:47:05;98216.25;;;9.55;47.25
55171;BME280;41060;47.510;8.680;2023-02-20T07:49:33;98179.88;;;9.29;47.58
55171;BME280;41060;47.510;8.680;2023-02-20T07:52:00;98225.00;;;9.42;47.66
55171;BME280;41060;47.510;8.680;2023-02-20T07:54:26;98192.94;;;9.32;47.64
55171;BME280;41060;47.510;8.680;2023-02-20T07:56:54;98196.50;;;9.31;48.62
55171;BME280;41060;47.510;8.680;2023-02-20T07:59:21;98223.09;;;9.44;48.24
55171;BME280;41060;47.510;8.680;2023-02-20T08:01:47;98124.19;;;8.87;48.07
55171;BME280;41060;47.510;8.680;2023-02-20T08:04:15;98209.88;;;9.74;47.96
55171;BME280;41060;47.510;8.680;2023-02-20T08:06:43;98205.31;;;10.06;47.26
55171;BME280;41060;47.510;8.680;2023-02-20T08:09:12;98195.63;;;10.34;46.63
55171;BME280;41060;47.510;8.680;2023-02-20T08:11:40;98206.84;;;10.10;46.86
55171;BME280;41060;47.510;8.680;2023-02-20T08:14:06;98209.13;;;10.02;47.38
55171;BME280;41060;47.510;8.680;2023-02-20T08:16:33;98064.38;;;9.45;46.96
55171;BME280;41060;47.510;8.680;2023-02-20T08:19:02;98204.69;;;10.59;46.95
55171;BME280;41060;47.510;8.680;2023-02-20T08:21:29;98205.34;;;10.77;45.75
55171;BME280;41060;47.510;8.680;2023-02-20T08:23:57;98186.91;;;10.61;45.48
55171;BME280;41060;47.510;8.680;2023-02-20T08:26:24;98200.44;;;10.42;46.44
55171;BME280;41060;47.510;8.680;2023-02-20T08:28:51;98134.72;;;9.78;46.60
55171;BME280;41060;47.510;8.680;2023-02-20T08:31:18;98015.22;;;9.13;46.90
55171;BME280;41060;47.510;8.680;2023-02-20T08:33:46;98130.28;;;10.07;46.94
55171;BME280;41060;47.510;8.680;2023-02-20T08:36:12;98145.66;;;10.57;46.28
55171;BME280;41060;47.510;8.680;2023-02-20T08:38:40;98156.25;;;10.57;46.45
55171;BME280;41060;47.510;8.680;2023-02-20T08:41:10;98177.75;;;10.66;46.12
55171;BME280;41060;47.510;8.680;2023-02-20T08:43:39;98198.13;;;10.93;45.88
55171;BME280;41060;47.510;8.680;2023-02-20T08:46:09;98082.78;;;10.60;45.71
55171;BME280;41060;47.510;8.680;2023-02-20T08:48:38;98185.88;;;11.58;45.00
55171;BME280;41060;47.510;8.680;2023-02-20T08:51:06;98062.91;;;10.94;44.24
55171;BME280;41060;47.510;8.680;2023-02-20T08:53:33;98155.19;;;11.41;44.61
55171;BME280;41060;47.510;8.680;2023-02-20T08:56:00;98155.44;;;11.24;45.16
55171;BME280;41060;47.510;8.680;2023-02-20T08:58:28;98181.34;;;11.06;46.08
55171;BME280;41060;47.510;8.680;2023-02-20T09:00:55;98009.59;;;10.04;46.22
55171;BME280;41060;47.510;8.680;2023-02-20T09:03:22;98164.06;;;11.28;45.82
55171;BME280;41060;47.510;8.680;2023-02-20T09:05:48;98191.16;;;11.45;46.05
55171;BME280;41060;47.510;8.680;2023-02-20T09:08:16;98183.66;;;11.25;46.57
55171;BME280;41060;47.510;8.680;2023-02-20T09:10:42;98091.34;;;10.78;46.33
55171;BME280;41060;47.510;8.680;2023-02-20T09:13:09;98132.19;;;11.15;46.22
55171;BME280;41060;47.510;8.680;2023-02-20T09:15:37;98052.03;;;11.12;45.12
55171;BME280;41060;47.510;8.680;2023-02-20T09:18:11;98171.34;;;11.91;44.89
55171;BME280;41060;47.510;8.680;2023-02-20T09:20:41;97996.22;;;10.61;45.49
55171;BME280;41060;47.510;8.680;2023-02-20T09:23:08;98165.56;;;11.71;45.41
55171;BME280;41060;47.510;8.680;2023-02-20T09:25:35;97956.91;;;10.94;44.77
55171;BME280;41060;47.510;8.680;2023-02-20T09:28:02;98163.56;;;12.51;43.90
55171;BME280;41060;47.510;8.680;2023-02-20T09:30:28;98161.38;;;12.81;43.42
55171;BME280;41060;47.510;8.680;2023-02-20T09:32:59;98132.66;;;12.37;43.90
55171;BME280;41060;47.510;8.680;2023-02-20T09:35:28;98123.91;;;12.60;43.95
55171;BME280;41060;47.510;8.680;2023-02-20T09:37:55;97986.41;;;11.91;43.87
55171;BME280;41060;47.510;8.680;2023-02-20T09:40:23;98013.22;;;12.24;43.12
55171;BME280;41060;47.510;8.680;2023-02-20T09:43:00;98008.53;;;12.52;42.34
55171;BME280;41060;47.510;8.680;2023-02-20T09:45:31;98139.09;;;13.31;41.97
55171;BME280;41060;47.510;8.680;2023-02-20T09:48:12;98135.53;;;13.20;42.29
55171;BME280;41060;47.510;8.680;2023-02-20T09:50:48;97998.56;;;12.43;41.51
55171;BME280;41060;47.510;8.680;2023-02-20T09:53:20;98143.09;;;13.37;41.99
55171;BME280;41060;47.510;8.680;2023-02-20T09:55:49;98074.09;;;12.99;41.77
55171;BME280;41060;47.510;8.680;2023-02-20T09:58:21;98109.06;;;13.18;42.11
55171;BME280;41060;47.510;8.680;2023-02-20T10:00:49;98125.03;;;13.53;41.54
55171;BME280;41060;47.510;8.680;2023-02-20T10:03:23;97983.50;;;12.67;41.45
55171;BME280;41060;47.510;8.680;2023-02-20T10:05:54;98121.09;;;13.70;41.63
55171;BME280;41060;47.510;8.680;2023-02-20T10:08:21;98133.72;;;13.90;40.72
55171;BME280;41060;47.510;8.680;2023-02-20T10:10:51;98125.63;;;14.03;40.83
55171;BME280;41060;47.510;8.680;2023-02-20T10:13:32;98076.59;;;13.83;40.62
55171;BME280;41060;47.510;8.680;2023-02-20T10:16:13;98079.00;;;13.97;40.17
55171;BME280;41060;47.510;8.680;2023-02-20T10:18:58;97995.97;;;13.59;39.20
55171;BME280;41060;47.510;8.680;2023-02-20T10:21:38;98125.81;;;14.46;38.38
55171;BME280;41060;47.510;8.680;2023-02-20T10:27:02;98079.38;;;13.93;38.33
55171;BME280;41060;47.510;8.680;2023-02-20T10:29:32;98133.69;;;14.36;38.45
55171;BME280;41060;47.510;8.680;2023-02-20T10:32:02;98069.38;;;14.18;37.61
55171;BME280;41060;47.510;8.680;2023-02-20T10:34:35;98132.47;;;14.51;37.27
55171;BME280;41060;47.510;8.680;2023-02-20T10:37:07;98039.94;;;13.87;37.93
55171;BME280;41060;47.510;8.680;2023-02-20T10:39:37;97990.06;;;14.11;37.19
55171;BME280;41060;47.510;8.680;2023-02-20T10:42:09;98128.47;;;15.22;36.98
55171;BME280;41060;47.510;8.680;2023-02-20T10:44:44;98139.50;;;15.82;35.97
55171;BME280;41060;47.510;8.680;2023-02-20T10:47:18;98127.38;;;15.98;35.34
55171;BME280;41060;47.510;8.680;2023-02-20T10:49:52;97981.16;;;15.08;35.42
55171;BME280;41060;47.510;8.680;2023-02-20T10:52:26;98124.47;;;16.22;35.58
55171;BME280;41060;47.510;8.680;2023-02-20T10:55:02;98126.94;;;16.44;34.67
55171;BME280;41060;47.510;8.680;2023-02-20T10:57:35;97903.09;;;14.85;34.47
55171;BME280;41060;47.510;8.680;2023-02-20T11:00:08;98120.22;;;15.25;36.17
55171;BME280;41060;47.510;8.680;2023-02-20T11:02:39;98103.56;;;15.65;35.78
55171;BME280;41060;47.510;8.680;2023-02-20T11:05:11;98111.03;;;15.71;35.50
55171;BME280;41060;47.510;8.680;2023-02-20T11:07:38;98109.13;;;15.41;36.58
55171;BME280;41060;47.510;8.680;2023-02-20T11:10:07;98100.19;;;15.52;36.03
55171;BME280;41060;47.510;8.680;2023-02-20T11:12:40;98109.22;;;16.13;35.55
55171;BME280;41060;47.510;8.680;2023-02-20T11:15:10;98099.13;;;16.57;34.57
55171;BME280;41060;47.510;8.680;2023-02-20T11:17:39;98041.97;;;16.48;34.23
55171;BME280;41060;47.510;8.680;2023-02-20T11:20:37;98048.59;;;17.03;34.23
55171;BME280;41060;47.510;8.680;2023-02-20T11:23:06;98070.84;;;17.04;33.73
55171;BME280;41060;47.510;8.680;2023-02-20T11:25:35;98072.25;;;17.56;33.65
55171;BME280;41060;47.510;8.680;2023-02-20T11:28:08;98070.28;;;17.58;33.14
55171;BME280;41060;47.510;8.680;2023-02-20T11:30:41;97996.50;;;16.98;33.37
55171;BME280;41060;47.510;8.680;2023-02-20T11:33:13;98041.28;;;17.34;33.54
55171;BME280;41060;47.510;8.680;2023-02-20T11:35:43;98053.03;;;17.80;32.78
55171;BME280;41060;47.510;8.680;2023-02-20T11:38:21;98011.50;;;17.56;32.16
55171;BME280;41060;47.510;8.680;2023-02-20T11:41:01;97925.97;;;17.45;32.24
55171;BME280;41060;47.510;8.680;2023-02-20T11:43:31;98042.00;;;18.39;31.60
55171;BME280;41060;47.510;8.680;2023-02-20T11:46:07;98040.28;;;18.65;31.37
55171;BME280;41060;47.510;8.680;2023-02-20T11:48:34;98018.81;;;18.75;31.22
55171;BME280;41060;47.510;8.680;2023-02-20T11:51:03;98025.94;;;19.02;30.96
55171;BME280;41060;47.510;8.680;2023-02-20T11:53:31;98010.00;;;18.83;30.81
55171;BME280;41060;47.510;8.680;2023-02-20T11:56:16;98005.31;;;19.02;30.65
55171;BME280;41060;47.510;8.680;2023-02-20T11:58:45;97941.00;;;18.93;29.96
55171;BME280;41060;47.510;8.680;2023-02-20T12:01:28;97986.34;;;19.22;30.03
55171;BME280;41060;47.510;8.680;2023-02-20T12:03:57;97931.47;;;19.16;30.38
55171;BME280;41060;47.510;8.680;2023-02-20T12:06:40;97979.47;;;19.80;29.58
55171;BME280;41060;47.510;8.680;2023-02-20T12:09:09;97960.25;;;20.01;29.59
55171;BME280;41060;47.510;8.680;2023-02-20T12:11:37;97812.09;;;19.28;28.73
55171;BME280;41060;47.510;8.680;2023-02-20T12:14:09;97963.91;;;20.34;28.59
55171;BME280;41060;47.510;8.680;2023-02-20T12:16:50;97963.28;;;20.48;28.34
55171;BME280;41060;47.510;8.680;2023-02-20T12:19:25;97958.81;;;20.65;27.88
55171;BME280;41060;47.510;8.680;2023-02-20T12:22:03;97950.44;;;20.76;27.77
55171;BME280;41060;47.510;8.680;2023-02-20T12:24:46;97941.03;;;20.96;27.39
55171;BME280;41060;47.510;8.680;2023-02-20T12:27:50;97938.53;;;21.11;27.61
55171;BME280;41060;47.510;8.680;2023-02-20T12:30:40;97845.56;;;19.42;28.57
55171;BME280;41060;47.510;8.680;2023-02-20T12:33:24;97876.19;;;19.31;29.00
55171;BME280;41060;47.510;8.680;2023-02-20T12:36:04;97862.28;;;19.62;28.76
55171;BME280;41060;47.510;8.680;2023-02-20T12:38:46;97872.56;;;20.08;28.18
55171;BME280;41060;47.510;8.680;2023-02-20T12:41:38;97834.84;;;20.42;27.79
55171;BME280;41060;47.510;8.680;2023-02-20T12:44:26;97902.00;;;21.25;26.53
55171;BME280;41060;47.510;8.680;2023-02-20T12:47:03;97731.47;;;20.45;26.05
55171;BME280;41060;47.510;8.680;2023-02-20T12:49:49;97903.25;;;21.69;25.44
55171;BME280;41060;47.510;8.680;2023-02-20T12:55:22;97880.91;;;22.08;24.92
55171;BME280;41060;47.510;8.680;2023-02-20T12:58:00;97823.28;;;22.01;24.77
55171;BME280;41060;47.510;8.680;2023-02-20T13:00:33;97893.84;;;22.51;24.29
55171;BME280;41060;47.510;8.680;2023-02-20T13:03:09;97884.91;;;22.12;23.86
55171;BME280;41060;47.510;8.680;2023-02-20T13:05:40;97887.81;;;22.33;23.77
55171;BME280;41060;47.510;8.680;2023-02-20T13:08:11;97876.50;;;22.46;24.00
55171;BME280;41060;47.510;8.680;2023-02-20T13:10:49;97858.25;;;22.71;24.20
55171;BME280;41060;47.510;8.680;2023-02-20T13:13:17;97857.97;;;22.88;24.45
55171;BME280;41060;47.510;8.680;2023-02-20T13:15:51;97810.03;;;22.90;23.59
55171;BME280;41060;47.510;8.680;2023-02-20T13:18:27;97833.84;;;23.24;23.08
55171;BME280;41060;47.510;8.680;2023-02-20T13:21:00;97829.56;;;23.45;22.94
55171;BME280;41060;47.510;8.680;2023-02-20T13:23:31;97686.63;;;22.61;22.50
55171;BME280;41060;47.510;8.680;2023-02-20T13:26:01;97827.34;;;23.63;22.33
55171;BME280;41060;47.510;8.680;2023-02-20T13:28:36;97771.00;;;23.08;21.99
55171;BME280;41060;47.510;8.680;2023-02-20T13:31:13;97829.22;;;23.48;22.31
55171;BME280;41060;47.510;8.680;2023-02-20T13:33:41;97834.34;;;23.57;21.83